sensor_id;sensor_type;location;lat;lon;timestamp;P1;durP1;ratioP1;P2;durP2;ratioP2
59271;SDS011;45043;51.068;7.026;2024-03-23T00:55:02;26.23;;;12.07;;
59271;SDS011;45043;51.068;7.026;2024-03-23T00:58:02;29.57;;;13.13;;
59271;SDS011;45043;51.068;7.026;2024-03-23T01:01:03;28.57;;;10.87;;
59271;SDS011;45043;51.068;7.026;2024-03-23T01:04:04;20.40;;;11.67;;
59271;SDS011;45043;51.068;7.026;2024-03-23T01:07:05;18.20;;;8.87;;
59271;SDS011;45043;51.068;7.026;2024-03-23T01:10:06;16.60;;;8.80;;
59271;SDS011;45043;51.068;7.026;2024-03-23T01:13:07;15.23;;;7.13;;
59271;SDS011;45043;51.068;7.026;2024-03-23T01:16:08;12.90;;;7.47;;
59271;SDS011;45043;51.068;7.026;2024-03-23T01:19:09;15.23;;;6.60;;
59271;SDS011;45043;51.068;7.026;2024-03-23T01:22:10;15.47;;;5.67;;
59271;SDS011;45043;51.068;7.026;2024-03-23T01:25:12;12.80;;;4.93;;
59271;SDS011;45043;51.068;7.026;2024-03-23T01:28:13;13.40;;;4.73;;
59271;SDS011;45043;51.068;7.026;2024-03-23T01:31:13;9.30;;;4.77;;
59271;SDS011;45043;51.068;7.026;2024-03-23T01:34:15;11.23;;;4.43;;
59271;SDS011;45043;51.068;7.026;2024-03-23T01:37:16;8.70;;;4.50;;
59271;SDS011;45043;51.068;7.026;2024-03-23T01:40:16;12.73;;;4.47;;
59271;SDS011;45043;51.068;7.026;2024-03-23T01:43:17;13.20;;;4.70;;
59271;SDS011;45043;51.068;7.026;2024-03-23T01:46:18;13.67;;;4.27;;
59271;SDS011;45043;51.068;7.026;2024-03-23T01:49:18;14.67;;;4.87;;
59271;SDS011;45043;51.068;7.026;2024-03-23T01:52:19;14.17;;;5.13;;
59271;SDS011;45043;51.068;7.026;2024-03-23T01:55:20;13.27;;;4.77;;
59271;SDS011;45043;51.068;7.026;2024-03-23T01:58:20;15.60;;;4.93;;
59271;SDS011;45043;51.068;7.026;2024-03-23T02:01:21;11.77;;;4.70;;
59271;SDS011;45043;51.068;7.026;2024-03-23T02:04:22;10.53;;;4.77;;
59271;SDS011;45043;51.068;7.026;2024-03-23T02:07:22;9.63;;;5.50;;
59271;SDS011;45043;51.068;7.026;2024-03-23T02:10:24;14.30;;;4.60;;
59271;SDS011;45043;51.068;7.026;2024-03-23T02:13:25;9.50;;;5.00;;
59271;SDS011;45043;51.068;7.026;2024-03-23T02:16:25;12.77;;;5.10;;
59271;SDS011;45043;51.068;7.026;2024-03-23T02:19:26;13.37;;;5.23;;
59271;SDS011;45043;51.068;7.026;2024-03-23T02:22:36;10.40;;;4.90;;
59271;SDS011;45043;51.068;7.026;2024-03-23T02:25:38;10.77;;;4.67;;
59271;SDS011;45043;51.068;7.026;2024-03-23T02:28:39;10.57;;;5.20;;
59271;SDS011;45043;51.068;7.026;2024-03-23T02:31:40;10.57;;;6.00;;
59271;SDS011;45043;51.068;7.026;2024-03-23T02:34:41;13.60;;;5.80;;
59271;SDS011;45043;51.068;7.026;2024-03-23T02:37:41;13.90;;;6.97;;
59271;SDS011;45043;51.068;7.026;2024-03-23T02:40:42;9.70;;;6.10;;
59271;SDS011;45043;51.068;7.026;2024-03-23T02:43:43;10.03;;;5.10;;
59271;SDS011;45043;51.068;7.026;2024-03-23T02:46:44;10.97;;;5.53;;
59271;SDS011;45043;51.068;7.026;2024-03-23T02:49:44;9.17;;;5.83;;
59271;SDS011;45043;51.068;7.026;2024-03-23T02:52:45;9.97;;;5.77;;
59271;SDS011;45043;51.068;7.026;2024-03-23T02:55:46;11.50;;;5.73;;
59271;SDS011;45043;51.068;7.026;2024-03-23T02:58:47;10.20;;;5.80;;
59271;SDS011;45043;51.068;7.026;2024-03-23T03:01:48;9.73;;;5.50;;
59271;SDS011;45043;51.068;7.026;2024-03-23T03:04:48;12.73;;;6.27;;
59271;SDS011;45043;51.068;7.026;2024-03-23T03:07:49;10.33;;;5.63;;
59271;SDS011;45043;51.068;7.026;2024-03-23T03:10:49;11.00;;;5.80;;
59271;SDS011;45043;51.068;7.026;2024-03-23T03:13:50;14.57;;;6.10;;
59271;SDS011;45043;51.068;7.026;2024-03-23T03:16:51;13.43;;;6.60;;
59271;SDS011;45043;51.068;7.026;2024-03-23T03:19:51;12.60;;;6.10;;
59271;SDS011;45043;51.068;7.026;2024-03-23T03:22:56;12.93;;;6.87;;
59271;SDS011;45043;51.068;7.026;2024-03-23T03:25:58;10.30;;;5.93;;
59271;SDS011;45043;51.068;7.026;2024-03-23T03:28:59;10.63;;;6.70;;
59271;SDS011;45043;51.068;7.026;2024-03-23T03:31:59;14.47;;;6.07;;
59271;SDS011;45043;51.068;7.026;2024-03-23T03:35:00;12.17;;;5.90;;
59271;SDS011;45043;51.068;7.026;2024-03-23T03:38:00;12.73;;;5.40;;
59271;SDS011;45043;51.068;7.026;2024-03-23T03:41:01;14.63;;;6.40;;
59271;SDS011;45043;51.068;7.026;2024-03-23T03:44:02;9.47;;;5.47;;
59271;SDS011;45043;51.068;7.026;2024-03-23T03:47:03;14.40;;;5.70;;
59271;SDS011;45043;51.068;7.026;2024-03-23T03:50:05;13.07;;;5.27;;
59271;SDS011;45043;51.068;7.026;2024-03-23T03:53:06;16.13;;;4.80;;
59271;SDS011;45043;51.068;7.026;2024-03-23T03:56:06;13.07;;;5.50;;
59271;SDS011;45043;51.068;7.026;2024-03-23T03:59:07;12.57;;;5.00;;
59271;SDS011;45043;51.068;7.026;2024-03-23T04:02:09;10.67;;;4.43;;
59271;SDS011;45043;51.068;7.026;2024-03-23T04:05:11;9.93;;;4.47;;
59271;SDS011;45043;51.068;7.026;2024-03-23T04:08:12;9.30;;;3.87;;
59271;SDS011;45043;51.068;7.026;2024-03-23T04:11:12;13.43;;;4.53;;
59271;SDS011;45043;51.068;7.026;2024-03-23T04:14:13;9.13;;;3.70;;
59271;SDS011;45043;51.068;7.026;2024-03-23T04:17:13;12.00;;;4.20;;
59271;SDS011;45043;51.068;7.026;2024-03-23T04:20:14;8.43;;;4.33;;
59271;SDS011;45043;51.068;7.026;2024-03-23T04:23:17;8.70;;;4.60;;
59271;SDS011;45043;51.068;7.026;2024-03-23T04:26:18;13.40;;;4.03;;
59271;SDS011;45043;51.068;7.026;2024-03-23T04:29:19;9.97;;;4.27;;
59271;SDS011;45043;51.068;7.026;2024-03-23T04:32:19;10.87;;;4.10;;
59271;SDS011;45043;51.068;7.026;2024-03-23T04:35:20;9.53;;;4.03;;
59271;SDS011;45043;51.068;7.026;2024-03-23T04:38:23;9.23;;;4.00;;
59271;SDS011;45043;51.068;7.026;2024-03-23T04:41:23;8.13;;;4.43;;
59271;SDS011;45043;51.068;7.026;2024-03-23T04:44:24;9.20;;;3.43;;
59271;SDS011;45043;51.068;7.026;2024-03-23T04:47:25;8.43;;;3.43;;
59271;SDS011;45043;51.068;7.026;2024-03-23T04:50:26;10.17;;;3.47;;
59271;SDS011;45043;51.068;7.026;2024-03-23T04:53:27;12.33;;;4.13;;
59271;SDS011;45043;51.068;7.026;2024-03-23T04:56:29;8.13;;;3.50;;
59271;SDS011;45043;51.068;7.026;2024-03-23T04:59:31;9.83;;;3.43;;
59271;SDS011;45043;51.068;7.026;2024-03-23T05:02:32;12.73;;;4.10;;
59271;SDS011;45043;51.068;7.026;2024-03-23T05:05:35;10.33;;;3.60;;
59271;SDS011;45043;51.068;7.026;2024-03-23T05:08:35;8.77;;;3.20;;
59271;SDS011;45043;51.068;7.026;2024-03-23T05:11:36;9.73;;;3.63;;
59271;SDS011;45043;51.068;7.026;2024-03-23T05:14:40;7.23;;;3.07;;
59271;SDS011;45043;51.068;7.026;2024-03-23T05:17:40;11.83;;;3.93;;
59271;SDS011;45043;51.068;7.026;2024-03-23T05:20:41;11.07;;;4.27;;
59271;SDS011;45043;51.068;7.026;2024-03-23T05:23:42;10.97;;;3.80;;
59271;SDS011;45043;51.068;7.026;2024-03-23T05:26:43;8.03;;;3.37;;
59271;SDS011;45043;51.068;7.026;2024-03-23T05:29:44;11.07;;;3.23;;
59271;SDS011;45043;51.068;7.026;2024-03-23T05:32:44;11.10;;;3.77;;
59271;SDS011;45043;51.068;7.026;2024-03-23T05:35:44;7.50;;;3.47;;
59271;SDS011;45043;51.068;7.026;2024-03-23T05:38:45;9.63;;;3.67;;
59271;SDS011;45043;51.068;7.026;2024-03-23T05:41:47;8.70;;;3.80;;
59271;SDS011;45043;51.068;7.026;2024-03-23T05:44:47;9.83;;;3.63;;
59271;SDS011;45043;51.068;7.026;2024-03-23T05:47:48;11.70;;;3.73;;
59271;SDS011;45043;51.068;7.026;2024-03-23T05:50:49;7.60;;;4.27;;
59271;SDS011;45043;51.068;7.026;2024-03-23T05:53:50;12.13;;;4.33;;
59271;SDS011;45043;51.068;7.026;2024-03-23T05:56:54;9.47;;;4.03;;
59271;SDS011;45043;51.068;7.026;2024-03-23T05:59:55;9.63;;;3.70;;
59271;SDS011;45043;51.068;7.026;2024-03-23T06:02:56;13.10;;;4.60;;
59271;SDS011;45043;51.068;7.026;2024-03-23T06:05:56;10.27;;;3.73;;
59271;SDS011;45043;51.068;7.026;2024-03-23T06:08:57;14.63;;;4.10;;
59271;SDS011;45043;51.068;7.026;2024-03-23T06:11:58;12.23;;;3.87;;
59271;SDS011;45043;51.068;7.026;2024-03-23T06:14:58;11.83;;;3.60;;
59271;SDS011;45043;51.068;7.026;2024-03-23T06:18:01;8.17;;;3.10;;
59271;SDS011;45043;51.068;7.026;2024-03-23T06:21:04;11.47;;;3.67;;
59271;SDS011;45043;51.068;7.026;2024-03-23T06:24:04;10.57;;;3.47;;
59271;SDS011;45043;51.068;7.026;2024-03-23T06:27:06;10.20;;;3.20;;
59271;SDS011;45043;51.068;7.026;2024-03-23T06:30:07;13.80;;;3.20;;
59271;SDS011;45043;51.068;7.026;2024-03-23T06:33:07;10.80;;;3.67;;
59271;SDS011;45043;51.068;7.026;2024-03-23T06:36:11;11.27;;;4.13;;
59271;SDS011;45043;51.068;7.026;2024-03-23T06:39:12;9.67;;;3.37;;
59271;SDS011;45043;51.068;7.026;2024-03-23T06:42:15;11.00;;;3.80;;
59271;SDS011;45043;51.068;7.026;2024-03-23T06:45:16;7.40;;;3.60;;
59271;SDS011;45043;51.068;7.026;2024-03-23T06:48:17;10.23;;;4.10;;
59271;SDS011;45043;51.068;7.026;2024-03-23T06:51:17;9.60;;;3.83;;
59271;SDS011;45043;51.068;7.026;2024-03-23T06:54:19;10.80;;;3.63;;
59271;SDS011;45043;51.068;7.026;2024-03-23T06:57:20;9.27;;;4.43;;
59271;SDS011;45043;51.068;7.026;2024-03-23T07:00:22;7.70;;;3.47;;
59271;SDS011;45043;51.068;7.026;2024-03-23T07:03:23;13.87;;;4.90;;
59271;SDS011;45043;51.068;7.026;2024-03-23T07:06:24;10.00;;;5.30;;
59271;SDS011;45043;51.068;7.026;2024-03-23T07:09:25;12.40;;;4.63;;
59271;SDS011;45043;51.068;7.026;2024-03-23T07:12:28;9.70;;;4.10;;
59271;SDS011;45043;51.068;7.026;2024-03-23T07:15:29;12.47;;;4.47;;
59271;SDS011;45043;51.068;7.026;2024-03-23T07:18:29;13.10;;;4.07;;
59271;SDS011;45043;51.068;7.026;2024-03-23T07:21:30;8.83;;;3.77;;
59271;SDS011;45043;51.068;7.026;2024-03-23T07:24:31;11.87;;;4.00;;
59271;SDS011;45043;51.068;7.026;2024-03-23T07:27:32;12.73;;;4.60;;
59271;SDS011;45043;51.068;7.026;2024-03-23T07:30:34;11.20;;;4.57;;
59271;SDS011;45043;51.068;7.026;2024-03-23T07:33:35;14.60;;;4.63;;
59271;SDS011;45043;51.068;7.026;2024-03-23T07:36:37;12.67;;;4.80;;
59271;SDS011;45043;51.068;7.026;2024-03-23T07:39:41;7.40;;;4.30;;
59271;SDS011;45043;51.068;7.026;2024-03-23T07:42:42;16.13;;;5.40;;
59271;SDS011;45043;51.068;7.026;2024-03-23T07:45:42;8.83;;;4.33;;
59271;SDS011;45043;51.068;7.026;2024-03-23T07:48:44;14.07;;;5.53;;
59271;SDS011;45043;51.068;7.026;2024-03-23T07:51:45;11.70;;;5.27;;
59271;SDS011;45043;51.068;7.026;2024-03-23T07:54:45;9.50;;;4.67;;
59271;SDS011;45043;51.068;7.026;2024-03-23T07:57:47;10.83;;;4.70;;
59271;SDS011;45043;51.068;7.026;2024-03-23T08:00:47;10.60;;;5.00;;
59271;SDS011;45043;51.068;7.026;2024-03-23T08:03:49;10.57;;;5.57;;
59271;SDS011;45043;51.068;7.026;2024-03-23T08:06:50;12.17;;;6.07;;
59271;SDS011;45043;51.068;7.026;2024-03-23T08:09:51;15.23;;;6.07;;
59271;SDS011;45043;51.068;7.026;2024-03-23T08:12:52;11.53;;;6.67;;
59271;SDS011;45043;51.068;7.026;2024-03-23T08:15:56;13.27;;;6.37;;
59271;SDS011;45043;51.068;7.026;2024-03-23T08:18:57;11.43;;;5.47;;
59271;SDS011;45043;51.068;7.026;2024-03-23T08:21:58;10.53;;;5.97;;
59271;SDS011;45043;51.068;7.026;2024-03-23T08:24:59;14.20;;;6.57;;
59271;SDS011;45043;51.068;7.026;2024-03-23T08:27:59;10.73;;;5.43;;
59271;SDS011;45043;51.068;7.026;2024-03-23T08:31:03;13.40;;;6.57;;
59271;SDS011;45043;51.068;7.026;2024-03-23T08:34:07;15.03;;;5.57;;
59271;SDS011;45043;51.068;7.026;2024-03-23T08:37:08;12.73;;;5.80;;
59271;SDS011;45043;51.068;7.026;2024-03-23T08:40:09;10.50;;;5.63;;
59271;SDS011;45043;51.068;7.026;2024-03-23T08:43:12;10.33;;;4.80;;
59271;SDS011;45043;51.068;7.026;2024-03-23T08:46:14;11.60;;;5.30;;
59271;SDS011;45043;51.068;7.026;2024-03-23T08:49:18;12.67;;;4.67;;
59271;SDS011;45043;51.068;7.026;2024-03-23T08:52:21;7.17;;;4.77;;
59271;SDS011;45043;51.068;7.026;2024-03-23T08:55:23;12.70;;;4.90;;
59271;SDS011;45043;51.068;7.026;2024-03-23T08:58:24;15.13;;;4.17;;
59271;SDS011;45043;51.068;7.026;2024-03-23T09:01:26;11.10;;;3.87;;
59271;SDS011;45043;51.068;7.026;2024-03-23T09:04:28;11.73;;;4.00;;
59271;SDS011;45043;51.068;7.026;2024-03-23T09:07:32;9.53;;;4.83;;
59271;SDS011;45043;51.068;7.026;2024-03-23T09:10:40;12.27;;;4.17;;
59271;SDS011;45043;51.068;7.026;2024-03-23T09:13:42;10.10;;;4.63;;
59271;SDS011;45043;51.068;7.026;2024-03-23T09:16:43;12.00;;;4.50;;
59271;SDS011;45043;51.068;7.026;2024-03-23T09:19:43;10.77;;;5.10;;
59271;SDS011;45043;51.068;7.026;2024-03-23T09:22:44;10.43;;;5.77;;
59271;SDS011;45043;51.068;7.026;2024-03-23T09:25:45;10.53;;;4.30;;
59271;SDS011;45043;51.068;7.026;2024-03-23T09:28:48;9.20;;;4.63;;
59271;SDS011;45043;51.068;7.026;2024-03-23T09:31:50;9.77;;;4.67;;
59271;SDS011;45043;51.068;7.026;2024-03-23T09:34:50;9.83;;;4.33;;
59271;SDS011;45043;51.068;7.026;2024-03-23T09:37:51;9.90;;;4.60;;
59271;SDS011;45043;51.068;7.026;2024-03-23T09:40:52;9.23;;;4.40;;
59271;SDS011;45043;51.068;7.026;2024-03-23T09:43:54;13.00;;;4.40;;
59271;SDS011;45043;51.068;7.026;2024-03-23T09:46:55;8.03;;;4.47;;
59271;SDS011;45043;51.068;7.026;2024-03-23T09:49:57;9.50;;;5.00;;
59271;SDS011;45043;51.068;7.026;2024-03-23T09:52:57;10.23;;;4.00;;
59271;SDS011;45043;51.068;7.026;2024-03-23T09:55:58;7.30;;;3.10;;
59271;SDS011;45043;51.068;7.026;2024-03-23T09:59:00;9.37;;;3.40;;
59271;SDS011;45043;51.068;7.026;2024-03-23T10:02:02;8.00;;;3.07;;
59271;SDS011;45043;51.068;7.026;2024-03-23T10:05:04;9.43;;;3.23;;
59271;SDS011;45043;51.068;7.026;2024-03-23T10:08:20;9.43;;;3.30;;
59271;SDS011;45043;51.068;7.026;2024-03-23T10:11:21;8.77;;;3.43;;
59271;SDS011;45043;51.068;7.026;2024-03-23T10:14:28;10.27;;;2.50;;
59271;SDS011;45043;51.068;7.026;2024-03-23T10:17:31;7.00;;;3.03;;
59271;SDS011;45043;51.068;7.026;2024-03-23T10:20:32;8.53;;;3.17;;
59271;SDS011;45043;51.068;7.026;2024-03-23T10:23:32;5.57;;;2.93;;
59271;SDS011;45043;51.068;7.026;2024-03-23T10:26:33;10.70;;;2.83;;
59271;SDS011;45043;51.068;7.026;2024-03-23T10:29:34;7.50;;;2.73;;
59271;SDS011;45043;51.068;7.026;2024-03-23T10:32:35;6.90;;;3.10;;
59271;SDS011;45043;51.068;7.026;2024-03-23T10:35:37;5.23;;;2.80;;
59271;SDS011;45043;51.068;7.026;2024-03-23T10:38:42;7.63;;;2.40;;
59271;SDS011;45043;51.068;7.026;2024-03-23T10:41:45;5.90;;;2.47;;
59271;SDS011;45043;51.068;7.026;2024-03-23T10:44:46;7.80;;;2.93;;
59271;SDS011;45043;51.068;7.026;2024-03-23T10:47:48;2.93;;;1.83;;
59271;SDS011;45043;51.068;7.026;2024-03-23T10:50:48;3.80;;;1.97;;
59271;SDS011;45043;51.068;7.026;2024-03-23T10:53:49;3.57;;;2.13;;
59271;SDS011;45043;51.068;7.026;2024-03-23T10:56:58;4.90;;;2.10;;
59271;SDS011;45043;51.068;7.026;2024-03-23T11:00:04;5.60;;;2.20;;
59271;SDS011;45043;51.068;7.026;2024-03-23T11:06:39;2.97;;;2.03;;
59271;SDS011;45043;51.068;7.026;2024-03-23T11:09:40;6.37;;;1.70;;
59271;SDS011;45043;51.068;7.026;2024-03-23T11:12:45;6.50;;;1.87;;
59271;SDS011;45043;51.068;7.026;2024-03-23T11:15:46;4.70;;;2.10;;
59271;SDS011;45043;51.068;7.026;2024-03-23T11:18:47;3.43;;;1.53;;
59271;SDS011;45043;51.068;7.026;2024-03-23T11:21:54;2.10;;;1.50;;
59271;SDS011;45043;51.068;7.026;2024-03-23T11:24:55;3.10;;;1.73;;
59271;SDS011;45043;51.068;7.026;2024-03-23T11:27:56;2.80;;;2.13;;
59271;SDS011;45043;51.068;7.026;2024-03-23T11:30:58;1.83;;;1.27;;
59271;SDS011;45043;51.068;7.026;2024-03-23T11:34:05;1.90;;;1.80;;
59271;SDS011;45043;51.068;7.026;2024-03-23T11:37:06;1.70;;;1.50;;
59271;SDS011;45043;51.068;7.026;2024-03-23T11:40:17;2.37;;;2.07;;
59271;SDS011;45043;51.068;7.026;2024-03-23T11:43:20;1.93;;;1.63;;
59271;SDS011;45043;51.068;7.026;2024-03-23T11:46:22;2.67;;;1.67;;
59271;SDS011;45043;51.068;7.026;2024-03-23T11:49:24;2.63;;;1.60;;
59271;SDS011;45043;51.068;7.026;2024-03-23T11:52:29;2.60;;;2.00;;
59271;SDS011;45043;51.068;7.026;2024-03-23T11:55:30;4.50;;;2.40;;
59271;SDS011;45043;51.068;7.026;2024-03-23T11:58:30;4.83;;;2.57;;
59271;SDS011;45043;51.068;7.026;2024-03-23T12:01:32;2.80;;;2.03;;
59271;SDS011;45043;51.068;7.026;2024-03-23T12:04:33;7.57;;;2.80;;
59271;SDS011;45043;51.068;7.026;2024-03-23T12:07:36;3.63;;;2.50;;
59271;SDS011;45043;51.068;7.026;2024-03-23T12:10:37;6.20;;;2.40;;
59271;SDS011;45043;51.068;7.026;2024-03-23T12:13:38;6.40;;;2.10;;
59271;SDS011;45043;51.068;7.026;2024-03-23T12:16:42;6.27;;;2.40;;
59271;SDS011;45043;51.068;7.026;2024-03-23T12:19:43;3.27;;;2.30;;
59271;SDS011;45043;51.068;7.026;2024-03-23T12:22:45;2.50;;;1.60;;
59271;SDS011;45043;51.068;7.026;2024-03-23T12:25:48;1.60;;;1.37;;
59271;SDS011;45043;51.068;7.026;2024-03-23T12:28:50;3.40;;;1.60;;
59271;SDS011;45043;51.068;7.026;2024-03-23T12:31:51;1.93;;;1.70;;
59271;SDS011;45043;51.068;7.026;2024-03-23T12:34:51;1.43;;;1.33;;
59271;SDS011;45043;51.068;7.026;2024-03-23T12:37:53;1.80;;;1.60;;
59271;SDS011;45043;51.068;7.026;2024-03-23T12:40:54;2.17;;;1.30;;
59271;SDS011;45043;51.068;7.026;2024-03-23T12:43:55;2.50;;;1.80;;
59271;SDS011;45043;51.068;7.026;2024-03-23T12:46:55;1.97;;;1.60;;
59271;SDS011;45043;51.068;7.026;2024-03-23T12:49:56;1.60;;;1.50;;
59271;SDS011;45043;51.068;7.026;2024-03-23T12:52:57;2.07;;;1.50;;
59271;SDS011;45043;51.068;7.026;2024-03-23T12:55:58;2.50;;;1.87;;
59271;SDS011;45043;51.068;7.026;2024-03-23T12:58:59;2.80;;;1.47;;
59271;SDS011;45043;51.068;7.026;2024-03-23T13:02:00;1.77;;;1.63;;
59271;SDS011;45043;51.068;7.026;2024-03-23T13:05:01;1.70;;;1.60;;
59271;SDS011;45043;51.068;7.026;2024-03-23T13:08:03;2.47;;;2.27;;
59271;SDS011;45043;51.068;7.026;2024-03-23T13:11:03;2.00;;;1.43;;
59271;SDS011;45043;51.068;7.026;2024-03-23T13:14:04;1.90;;;1.77;;
59271;SDS011;45043;51.068;7.026;2024-03-23T13:17:06;1.87;;;1.77;;
59271;SDS011;45043;51.068;7.026;2024-03-23T13:20:07;2.47;;;1.87;;
59271;SDS011;45043;51.068;7.026;2024-03-23T13:23:13;2.73;;;1.80;;
59271;SDS011;45043;51.068;7.026;2024-03-23T13:26:14;2.83;;;1.83;;
59271;SDS011;45043;51.068;7.026;2024-03-23T13:29:15;2.33;;;2.10;;
59271;SDS011;45043;51.068;7.026;2024-03-23T13:32:15;2.13;;;1.87;;
59271;SDS011;45043;51.068;7.026;2024-03-23T13:35:16;4.93;;;1.97;;
59271;SDS011;45043;51.068;7.026;2024-03-23T13:38:17;2.57;;;2.13;;
59271;SDS011;45043;51.068;7.026;2024-03-23T13:41:18;3.40;;;2.57;;
59271;SDS011;45043;51.068;7.026;2024-03-23T13:44:19;9.00;;;2.87;;
59271;SDS011;45043;51.068;7.026;2024-03-23T13:47:20;5.37;;;2.23;;
59271;SDS011;45043;51.068;7.026;2024-03-23T13:50:20;4.70;;;2.30;;
59271;SDS011;45043;51.068;7.026;2024-03-23T13:53:22;2.67;;;1.90;;
59271;SDS011;45043;51.068;7.026;2024-03-23T13:56:24;2.30;;;2.00;;
59271;SDS011;45043;51.068;7.026;2024-03-23T13:59:24;2.57;;;1.60;;
59271;SDS011;45043;51.068;7.026;2024-03-23T14:02:25;3.03;;;1.77;;
59271;SDS011;45043;51.068;7.026;2024-03-23T14:05:26;4.23;;;2.30;;
59271;SDS011;45043;51.068;7.026;2024-03-23T14:08:26;3.80;;;2.23;;
59271;SDS011;45043;51.068;7.026;2024-03-23T14:11:28;3.77;;;2.40;;
59271;SDS011;45043;51.068;7.026;2024-03-23T14:14:29;4.73;;;3.50;;
59271;SDS011;45043;51.068;7.026;2024-03-23T14:17:29;2.50;;;2.13;;
59271;SDS011;45043;51.068;7.026;2024-03-23T14:20:31;2.43;;;2.20;;
59271;SDS011;45043;51.068;7.026;2024-03-23T14:23:31;4.50;;;2.33;;
59271;SDS011;45043;51.068;7.026;2024-03-23T14:26:38;4.67;;;2.43;;
59271;SDS011;45043;51.068;7.026;2024-03-23T14:29:39;3.93;;;2.17;;
59271;SDS011;45043;51.068;7.026;2024-03-23T14:32:40;4.50;;;2.10;;
59271;SDS011;45043;51.068;7.026;2024-03-23T14:35:40;5.70;;;2.10;;
59271;SDS011;45043;51.068;7.026;2024-03-23T14:38:41;2.93;;;1.80;;
59271;SDS011;45043;51.068;7.026;2024-03-23T14:41:42;2.97;;;1.90;;
59271;SDS011;45043;51.068;7.026;2024-03-23T14:44:45;4.93;;;2.20;;
59271;SDS011;45043;51.068;7.026;2024-03-23T14:47:46;4.10;;;2.00;;
59271;SDS011;45043;51.068;7.026;2024-03-23T14:50:47;2.30;;;2.10;;
59271;SDS011;45043;51.068;7.026;2024-03-23T14:53:56;4.80;;;2.40;;
59271;SDS011;45043;51.068;7.026;2024-03-23T14:56:58;3.30;;;2.27;;
59271;SDS011;45043;51.068;7.026;2024-03-23T14:59:59;3.23;;;2.00;;
59271;SDS011;45043;51.068;7.026;2024-03-23T15:03:00;5.67;;;2.37;;
59271;SDS011;45043;51.068;7.026;2024-03-23T15:06:01;3.97;;;2.27;;
59271;SDS011;45043;51.068;7.026;2024-03-23T15:09:02;3.57;;;2.30;;
59271;SDS011;45043;51.068;7.026;2024-03-23T15:12:07;4.20;;;2.00;;
59271;SDS011;45043;51.068;7.026;2024-03-23T15:15:09;3.13;;;2.20;;
59271;SDS011;45043;51.068;7.026;2024-03-23T15:18:11;2.53;;;2.33;;
59271;SDS011;45043;51.068;7.026;2024-03-23T15:21:13;2.33;;;2.13;;
59271;SDS011;45043;51.068;7.026;2024-03-23T15:24:20;3.10;;;2.33;;
59271;SDS011;45043;51.068;7.026;2024-03-23T15:27:21;4.23;;;3.87;;
59271;SDS011;45043;51.068;7.026;2024-03-23T15:30:23;3.67;;;3.20;;
59271;SDS011;45043;51.068;7.026;2024-03-23T15:33:24;1.60;;;1.40;;
59271;SDS011;45043;51.068;7.026;2024-03-23T15:36:25;3.60;;;1.90;;
59271;SDS011;45043;51.068;7.026;2024-03-23T15:39:26;5.63;;;5.13;;
59271;SDS011;45043;51.068;7.026;2024-03-23T15:42:26;4.17;;;3.57;;
59271;SDS011;45043;51.068;7.026;2024-03-23T15:45:27;3.40;;;3.10;;
59271;SDS011;45043;51.068;7.026;2024-03-23T15:48:28;4.83;;;3.30;;
59271;SDS011;45043;51.068;7.026;2024-03-23T15:51:29;3.40;;;3.20;;
59271;SDS011;45043;51.068;7.026;2024-03-23T15:54:35;3.20;;;2.90;;
59271;SDS011;45043;51.068;7.026;2024-03-23T15:57:37;3.03;;;2.20;;
59271;SDS011;45043;51.068;7.026;2024-03-23T16:00:38;3.00;;;1.27;;
59271;SDS011;45043;51.068;7.026;2024-03-23T16:03:39;2.53;;;1.30;;
59271;SDS011;45043;51.068;7.026;2024-03-23T16:06:39;2.83;;;1.40;;
59271;SDS011;45043;51.068;7.026;2024-03-23T16:09:42;2.40;;;1.40;;
59271;SDS011;45043;51.068;7.026;2024-03-23T16:12:43;3.10;;;1.70;;
59271;SDS011;45043;51.068;7.026;2024-03-23T16:15:44;3.93;;;2.23;;
59271;SDS011;45043;51.068;7.026;2024-03-23T16:18:58;2.60;;;1.43;;
59271;SDS011;45043;51.068;7.026;2024-03-23T16:21:59;1.67;;;1.57;;
59271;SDS011;45043;51.068;7.026;2024-03-23T16:25:01;1.90;;;1.80;;
59271;SDS011;45043;51.068;7.026;2024-03-23T16:28:03;5.13;;;4.77;;
59271;SDS011;45043;51.068;7.026;2024-03-23T16:31:05;4.93;;;4.63;;
59271;SDS011;45043;51.068;7.026;2024-03-23T16:34:08;3.30;;;3.00;;
59271;SDS011;45043;51.068;7.026;2024-03-23T16:37:09;5.03;;;4.63;;
59271;SDS011;45043;51.068;7.026;2024-03-23T16:40:11;5.03;;;4.27;;
59271;SDS011;45043;51.068;7.026;2024-03-23T16:43:12;7.40;;;6.83;;
59271;SDS011;45043;51.068;7.026;2024-03-23T16:46:13;4.97;;;3.73;;
59271;SDS011;45043;51.068;7.026;2024-03-23T16:49:16;5.17;;;4.77;;
59271;SDS011;45043;51.068;7.026;2024-03-23T16:52:16;5.00;;;3.90;;
59271;SDS011;45043;51.068;7.026;2024-03-23T16:55:17;4.13;;;3.83;;
59271;SDS011;45043;51.068;7.026;2024-03-23T16:58:18;3.90;;;3.40;;
59271;SDS011;45043;51.068;7.026;2024-03-23T17:01:21;3.30;;;3.10;;
59271;SDS011;45043;51.068;7.026;2024-03-23T17:04:24;4.07;;;3.70;;
59271;SDS011;45043;51.068;7.026;2024-03-23T17:07:25;3.33;;;2.87;;
59271;SDS011;45043;51.068;7.026;2024-03-23T17:10:27;2.50;;;2.07;;
59271;SDS011;45043;51.068;7.026;2024-03-23T17:13:29;3.50;;;2.27;;
59271;SDS011;45043;51.068;7.026;2024-03-23T17:16:30;2.97;;;1.57;;
59271;SDS011;45043;51.068;7.026;2024-03-23T17:19:32;1.77;;;1.63;;
59271;SDS011;45043;51.068;7.026;2024-03-23T17:22:33;2.40;;;1.83;;
59271;SDS011;45043;51.068;7.026;2024-03-23T17:25:34;1.50;;;1.40;;
59271;SDS011;45043;51.068;7.026;2024-03-23T17:28:35;2.10;;;1.57;;
59271;SDS011;45043;51.068;7.026;2024-03-23T17:31:36;1.87;;;1.77;;
59271;SDS011;45043;51.068;7.026;2024-03-23T17:34:38;2.17;;;1.70;;
59271;SDS011;45043;51.068;7.026;2024-03-23T17:37:39;1.90;;;1.70;;
59271;SDS011;45043;51.068;7.026;2024-03-23T17:40:41;3.97;;;2.20;;
59271;SDS011;45043;51.068;7.026;2024-03-23T17:43:44;3.37;;;2.40;;
59271;SDS011;45043;51.068;7.026;2024-03-23T17:46:45;4.23;;;2.30;;
59271;SDS011;45043;51.068;7.026;2024-03-23T17:49:46;2.40;;;1.80;;
59271;SDS011;45043;51.068;7.026;2024-03-23T17:52:46;2.67;;;2.30;;
59271;SDS011;45043;51.068;7.026;2024-03-23T17:55:47;2.23;;;1.87;;
59271;SDS011;45043;51.068;7.026;2024-03-23T17:58:48;3.13;;;2.00;;
59271;SDS011;45043;51.068;7.026;2024-03-23T18:01:49;1.97;;;1.80;;
59271;SDS011;45043;51.068;7.026;2024-03-23T18:04:50;2.97;;;2.00;;
59271;SDS011;45043;51.068;7.026;2024-03-23T18:07:50;3.87;;;2.33;;
59271;SDS011;45043;51.068;7.026;2024-03-23T18:10:51;3.63;;;2.70;;
59271;SDS011;45043;51.068;7.026;2024-03-23T18:13:54;6.23;;;2.73;;
59271;SDS011;45043;51.068;7.026;2024-03-23T18:16:54;3.90;;;2.50;;
59271;SDS011;45043;51.068;7.026;2024-03-23T18:19:56;3.47;;;2.60;;
59271;SDS011;45043;51.068;7.026;2024-03-23T18:22:57;3.40;;;2.70;;
59271;SDS011;45043;51.068;7.026;2024-03-23T18:25:58;3.93;;;3.17;;
59271;SDS011;45043;51.068;7.026;2024-03-23T18:28:59;4.13;;;2.93;;
59271;SDS011;45043;51.068;7.026;2024-03-23T18:32:00;3.70;;;3.00;;
59271;SDS011;45043;51.068;7.026;2024-03-23T18:35:01;4.07;;;2.77;;
59271;SDS011;45043;51.068;7.026;2024-03-23T18:38:01;4.77;;;2.80;;
59271;SDS011;45043;51.068;7.026;2024-03-23T18:41:02;4.50;;;2.87;;
59271;SDS011;45043;51.068;7.026;2024-03-23T18:44:03;4.97;;;3.20;;
59271;SDS011;45043;51.068;7.026;2024-03-23T18:47:04;5.27;;;3.27;;
59271;SDS011;45043;51.068;7.026;2024-03-23T18:50:05;5.30;;;3.50;;
59271;SDS011;45043;51.068;7.026;2024-03-23T18:53:05;7.53;;;4.33;;
59271;SDS011;45043;51.068;7.026;2024-03-23T18:56:08;3.37;;;2.63;;
59271;SDS011;45043;51.068;7.026;2024-03-23T18:59:09;3.67;;;3.37;;
59271;SDS011;45043;51.068;7.026;2024-03-23T19:02:10;3.90;;;3.10;;
59271;SDS011;45043;51.068;7.026;2024-03-23T19:05:11;4.50;;;2.90;;